Time;durP1;ratioP1;P1;durP2;ratioP2;P2;SDS_P1;SDS_P2;PMS_P1;PMS_P2;Temp;Humidity;BMP_temperature;BMP_pressure;BME280_temperature;BME280_humidity;BME280_pressure;Samples;Min_cycle;Max_cycle;Signal;HPM_P1;HPM_P2
2024/03/13 00:01:54;;;;;;;50.05;16.90;;;10.70;99.90;;;;;;4843104;29;20049;-86
2024/03/13 00:04:20;;;;;;;69.20;18.63;;;10.20;99.90;;;;;;4831100;29;20148;-87
2024/03/13 00:06:50;;;;;;;66.68;18.88;;;10.30;99.90;;;;;;4825047;29;20026;-86
2024/03/13 00:09:17;;;;;;;72.22;17.98;;;10.30;99.90;;;;;;4827420;29;20041;-86
2024/03/13 00:11:44;;;;;;;100.95;19.85;;;10.30;99.90;;;;;;4821522;29;20054;-86
2024/03/13 00:14:09;;;;;;;83.30;20.67;;;10.40;99.90;;;;;;4840592;29;20369;-86
2024/03/13 00:16:35;;;;;;;89.53;19.65;;;10.40;99.90;;;;;;4827757;29;20383;-86
2024/03/13 00:19:03;;;;;;;89.53;19.45;;;10.50;99.90;;;;;;4825795;29;20034;-86
2024/03/13 00:21:35;;;;;;;89.38;19.95;;;10.30;99.90;;;;;;4825862;29;20049;-86
2024/03/13 00:24:02;;;;;;;74.07;19.50;;;10.30;99.90;;;;;;4826223;29;20484;-87
2024/03/13 00:26:28;;;;;;;79.72;20.17;;;10.30;99.90;;;;;;4828471;29;20045;-88
2024/03/13 00:28:54;;;;;;;92.25;21.67;;;10.30;99.90;;;;;;4836528;29;20137;-88
2024/03/13 00:31:20;;;;;;;65.50;19.88;;;10.30;99.90;;;;;;4831239;29;20110;-87
2024/03/13 00:33:46;;;;;;;72.50;21.08;;;10.30;99.90;;;;;;4826022;29;20037;-86
2024/03/13 00:36:12;;;;;;;61.22;17.90;;;10.30;99.90;;;;;;4828772;29;20036;-87
2024/03/13 00:38:37;;;;;;;63.80;19.05;;;10.30;99.90;;;;;;4837820;29;20038;-86
2024/03/13 00:41:03;;;;;;;58.58;18.85;;;10.30;99.90;;;;;;4833380;29;20129;-86
2024/03/13 00:43:30;;;;;;;46.80;16.00;;;10.30;99.90;;;;;;4838478;29;20046;-87
2024/03/13 00:45:56;;;;;;;52.17;18.83;;;10.30;99.90;;;;;;4843445;29;20034;-86
2024/03/13 00:48:22;;;;;;;44.25;18.90;;;10.30;99.90;;;;;;4839854;29;20037;-86
2024/03/13 00:50:48;;;;;;;48.20;16.80;;;10.30;99.90;;;;;;4843153;29;20026;-86
2024/03/13 00:53:14;;;;;;;40.30;16.65;;;10.20;99.90;;;;;;4834577;29;20390;-85
2024/03/13 00:55:40;;;;;;;41.20;16.10;;;10.30;99.90;;;;;;4836164;29;20026;-86
2024/03/13 00:58:09;;;;;;;42.55;14.80;;;10.30;99.90;;;;;;4824631;29;20044;-86
2024/03/13 01:00:36;;;;;;;31.25;14.82;;;10.30;99.90;;;;;;4835937;29;20030;-87
2024/03/13 01:03:03;;;;;;;36.80;14.55;;;10.30;99.90;;;;;;4831635;29;20042;-86
2024/03/13 01:05:30;;;;;;;31.67;14.13;;;10.30;99.90;;;;;;4842712;29;20069;-85
2024/03/13 01:07:56;;;;;;;39.15;14.68;;;10.30;99.90;;;;;;4837741;29;20107;-85
2024/03/13 01:10:24;;;;;;;33.58;13.43;;;10.30;99.90;;;;;;4838980;29;20042;-87
2024/03/13 01:12:50;;;;;;;32.80;14.45;;;10.30;99.90;;;;;;4842417;29;20410;-87
2024/03/13 01:15:16;;;;;;;45.10;15.57;;;10.90;99.90;;;;;;4839334;29;20034;-85
2024/03/13 01:17:42;;;;;;;37.28;15.05;;;10.30;99.90;;;;;;4824411;29;20054;-87
2024/03/13 01:20:09;;;;;;;35.15;15.35;;;10.30;99.90;;;;;;4836351;29;20034;-85
2024/03/13 01:22:37;;;;;;;32.20;14.77;;;10.30;99.90;;;;;;4842973;29;20046;-86
2024/03/13 01:25:06;;;;;;;43.42;14.93;;;10.30;99.90;;;;;;4837430;29;20053;-85
2024/03/13 01:27:31;;;;;;;37.38;13.77;;;10.30;99.90;;;;;;4842988;29;20041;-86
2024/03/13 01:29:57;;;;;;;36.08;14.02;;;10.30;99.90;;;;;;4842566;29;20050;-85
2024/03/13 01:32:23;;;;;;;35.30;14.27;;;10.30;99.90;;;;;;4828952;29;20045;-86
2024/03/13 01:34:49;;;;;;;38.45;13.15;;;10.30;99.90;;;;;;4841530;29;20382;-87
2024/03/13 01:40:04;;;;;;;37.13;14.57;;;10.90;99.90;;;;;;4842069;29;20036;-86
2024/03/13 01:56:30;;;;;;;46.15;14.15;;;10.30;99.90;;;;;;4825440;29;20038;-86
2024/03/13 01:59:02;;;;;;;50.53;14.00;;;10.30;99.90;;;;;;4824432;29;20453;-86
2024/03/13 02:04:16;;;;;;;46.55;13.45;;;10.30;99.90;;;;;;4824282;29;20121;-87
2024/03/13 02:06:43;;;;;;;40.10;13.52;;;10.20;99.90;;;;;;4824043;29;20031;-87
2024/03/13 02:09:09;;;;;;;40.38;11.77;;;10.20;99.90;;;;;;4824534;29;20033;-87
2024/03/13 02:11:36;;;;;;;44.53;13.30;;;10.20;99.90;;;;;;4830210;29;20065;-87
2024/03/13 02:14:04;;;;;;;49.97;13.20;;;10.20;99.90;;;;;;4841816;29;20053;-85
2024/03/13 02:16:30;;;;;;;38.00;11.85;;;10.20;99.90;;;;;;4842013;29;20031;-86
2024/03/13 02:18:58;;;;;;;39.80;11.60;;;10.20;99.90;;;;;;4838801;29;20042;-85
2024/03/13 02:21:24;;;;;;;34.67;11.93;;;10.30;99.90;;;;;;4837829;29;20094;-86
2024/03/13 02:23:50;;;;;;;26.65;10.05;;;10.20;99.90;;;;;;4823538;29;20121;-85
2024/03/13 02:26:15;;;;;;;36.28;11.63;;;10.20;99.90;;;;;;4827414;29;20029;-86
2024/03/13 02:28:42;;;;;;;25.25;11.05;;;10.20;99.90;;;;;;4823216;29;20081;-86
2024/03/13 02:31:07;;;;;;;29.27;12.45;;;10.30;99.90;;;;;;4823464;29;20365;-85
2024/03/13 02:33:34;;;;;;;36.42;13.35;;;10.30;99.90;;;;;;4824131;29;20041;-86
2024/03/13 02:36:01;;;;;;;30.00;12.82;;;10.20;99.90;;;;;;4823273;29;20154;-86
2024/03/13 02:38:27;;;;;;;42.17;13.98;;;11.10;99.90;;;;;;4824010;29;20034;-87
2024/03/13 02:40:53;;;;;;;48.72;15.60;;;10.20;99.90;;;;;;4829334;29;20082;-86
2024/03/13 02:43:19;;;;;;;36.20;13.75;;;10.30;99.90;;;;;;4838171;29;20045;-86
2024/03/13 02:45:45;;;;;;;36.55;14.40;;;10.20;99.90;;;;;;4836455;29;20033;-86
2024/03/13 02:48:12;;;;;;;39.78;15.75;;;10.20;99.90;;;;;;4841706;29;20068;-85
2024/03/13 02:50:40;;;;;;;45.10;15.70;;;10.20;99.90;;;;;;4840891;29;20030;-86
2024/03/13 02:53:07;;;;;;;41.42;13.98;;;10.30;99.90;;;;;;4841344;29;20045;-85
2024/03/13 02:55:33;;;;;;;38.75;13.77;;;10.20;99.90;;;;;;4840808;29;20045;-86
2024/03/13 02:57:59;;;;;;;37.38;13.80;;;10.30;99.90;;;;;;4841339;29;20034;-86
2024/03/13 03:00:25;;;;;;;33.10;13.88;;;10.20;99.90;;;;;;4841502;29;20392;-86
2024/03/13 03:02:51;;;;;;;37.78;13.90;;;10.20;99.90;;;;;;4837953;29;20054;-86
2024/03/13 03:05:18;;;;;;;33.42;14.30;;;10.60;99.90;;;;;;4827691;29;20026;-86
2024/03/13 03:07:44;;;;;;;32.95;13.88;;;10.20;99.90;;;;;;4823413;29;20067;-86
2024/03/13 03:10:09;;;;;;;35.10;14.85;;;10.20;99.90;;;;;;4821757;29;20038;-86
2024/03/13 03:12:35;;;;;;;28.95;14.27;;;10.20;99.90;;;;;;4822879;29;20079;-86
2024/03/13 03:15:01;;;;;;;29.05;15.02;;;10.20;99.90;;;;;;4823004;29;20037;-86
2024/03/13 03:17:26;;;;;;;40.10;15.02;;;10.20;99.90;;;;;;4822584;29;20514;-86
2024/03/13 03:19:52;;;;;;;36.83;13.23;;;10.20;99.90;;;;;;4823319;29;20126;-86
2024/03/13 03:22:18;;;;;;;36.35;13.88;;;10.20;99.90;;;;;;4823594;29;20070;-87
2024/03/13 03:24:48;;;;;;;37.85;14.38;;;10.20;99.90;;;;;;4822526;29;20030;-86
2024/03/13 03:27:14;;;;;;;35.53;14.02;;;10.20;99.90;;;;;;4825645;29;20042;-86
2024/03/13 03:29:40;;;;;;;37.53;14.30;;;10.20;99.90;;;;;;4832285;29;20050;-86
2024/03/13 03:32:06;;;;;;;37.92;13.10;;;10.20;99.90;;;;;;4823045;29;20038;-86
2024/03/13 03:34:32;;;;;;;29.20;12.60;;;10.20;99.90;;;;;;4822587;29;20027;-86
2024/03/13 03:36:58;;;;;;;36.60;12.98;;;10.10;99.90;;;;;;4822933;29;20500;-87
2024/03/13 03:39:26;;;;;;;26.23;12.30;;;10.10;99.90;;;;;;4823033;29;20026;-87
2024/03/13 03:41:52;;;;;;;53.17;13.32;;;10.10;99.90;;;;;;4822967;29;20042;-86
2024/03/13 03:44:18;;;;;;;33.97;12.75;;;10.10;99.90;;;;;;4823117;29;20039;-86
2024/03/13 03:46:44;;;;;;;42.00;13.05;;;10.10;99.90;;;;;;4823020;29;20027;-86
2024/03/13 03:49:10;;;;;;;37.08;12.73;;;10.20;99.90;;;;;;4829155;29;20439;-87
2024/03/13 03:51:36;;;;;;;34.88;13.63;;;10.10;99.90;;;;;;4837153;29;20040;-88
2024/03/13 03:54:02;;;;;;;37.30;13.65;;;10.20;99.90;;;;;;4844222;29;20038;-86
2024/03/13 03:56:28;;;;;;;39.65;13.38;;;10.20;99.90;;;;;;4837081;29;20060;-88
2024/03/13 03:58:54;;;;;;;36.22;12.95;;;10.20;99.90;;;;;;4827141;29;20026;-87
2024/03/13 04:01:26;;;;;;;48.17;12.63;;;10.20;99.90;;;;;;4825987;29;20069;-88
2024/03/13 04:03:52;;;;;;;38.38;13.10;;;10.20;99.90;;;;;;4825891;29;20164;-88
2024/03/13 04:06:18;;;;;;;41.80;13.20;;;10.20;99.90;;;;;;4826255;29;20026;-87
2024/03/13 04:08:44;;;;;;;42.55;13.27;;;11.20;99.90;;;;;;4826216;29;20440;-88
2024/03/13 04:11:13;;;;;;;40.22;12.75;;;10.20;99.90;;;;;;4826190;29;20082;-85
2024/03/13 04:13:39;;;;;;;56.45;13.90;;;10.30;99.90;;;;;;4825746;29;20039;-88
2024/03/13 04:16:06;;;;;;;43.38;13.13;;;10.20;99.90;;;;;;4839676;29;20037;-88
2024/03/13 04:18:32;;;;;;;44.08;13.35;;;10.30;99.90;;;;;;4844613;29;20415;-87
2024/03/13 04:20:59;;;;;;;47.17;13.20;;;10.20;99.90;;;;;;4844393;29;20025;-88
2024/03/13 04:23:24;;;;;;;36.80;13.18;;;10.30;99.90;;;;;;4844717;29;20089;-87
2024/03/13 04:25:52;;;;;;;42.00;11.38;;;10.20;99.90;;;;;;4836942;29;20219;-86
2024/03/13 04:28:18;;;;;;;52.78;12.10;;;10.30;99.90;;;;;;4843736;29;20512;-87
2024/03/13 04:30:43;;;;;;;40.58;11.20;;;10.30;99.90;;;;;;4830969;29;20118;-86
2024/03/13 04:33:09;;;;;;;45.08;12.93;;;10.20;99.90;;;;;;4842568;29;20029;-87
2024/03/13 04:35:35;;;;;;;53.88;12.07;;;10.30;99.90;;;;;;4838011;29;20026;-87
2024/03/13 04:38:01;;;;;;;40.35;9.85;;;10.30;99.90;;;;;;4825281;29;20041;-87
2024/03/13 04:40:26;;;;;;;43.78;11.15;;;10.60;99.90;;;;;;4824923;29;20517;-86
2024/03/13 04:42:53;;;;;;;27.48;9.05;;;10.30;99.90;;;;;;4823509;29;20043;-86
2024/03/13 04:45:18;;;;;;;53.50;10.63;;;10.30;99.90;;;;;;4825474;29;20502;-89
2024/03/13 04:47:44;;;;;;;38.78;8.52;;;10.30;99.90;;;;;;4826388;29;20031;-88
2024/03/13 04:50:11;;;;;;;37.58;9.38;;;10.30;99.90;;;;;;4841575;29;20030;-87
2024/03/13 04:52:37;;;;;;;29.17;7.50;;;10.30;99.90;;;;;;4843912;29;20066;-86
2024/03/13 04:55:03;;;;;;;32.67;8.02;;;10.30;99.90;;;;;;4843133;29;20110;-86
2024/03/13 04:57:29;;;;;;;24.23;6.85;;;10.30;99.90;;;;;;4835327;29;20066;-87
2024/03/13 04:59:54;;;;;;;30.27;6.63;;;10.30;99.90;;;;;;4827564;29;20131;-86
2024/03/13 05:02:20;;;;;;;29.13;8.25;;;10.30;99.90;;;;;;4824241;29;20192;-86
2024/03/13 05:04:45;;;;;;;15.98;5.75;;;10.30;99.90;;;;;;4824736;29;20030;-86
2024/03/13 05:07:12;;;;;;;27.60;6.65;;;10.30;99.90;;;;;;4825410;29;20034;-87
2024/03/13 05:09:40;;;;;;;23.45;7.00;;;10.30;99.90;;;;;;4827565;29;20118;-86
2024/03/13 05:12:06;;;;;;;22.45;6.57;;;10.30;99.90;;;;;;4843249;29;20034;-87
2024/03/13 05:14:33;;;;;;;32.05;7.40;;;10.30;99.90;;;;;;4843573;29;20359;-86
2024/03/13 05:16:59;;;;;;;34.20;7.63;;;10.30;99.90;;;;;;4842521;29;20038;-87
2024/03/13 05:19:25;;;;;;;31.60;6.50;;;10.30;99.90;;;;;;4838939;29;20033;-87
2024/03/13 05:21:51;;;;;;;36.70;9.27;;;10.20;99.90;;;;;;4839802;29;20042;-86
2024/03/13 05:24:17;;;;;;;26.33;7.05;;;10.30;99.90;;;;;;4847039;29;20497;-86
2024/03/13 05:26:43;;;;;;;36.00;6.50;;;10.30;99.90;;;;;;4826902;29;20030;-88
2024/03/13 05:29:09;;;;;;;35.40;8.35;;;10.30;99.90;;;;;;4824896;29;20074;-86
2024/03/13 05:31:35;;;;;;;27.92;6.95;;;10.40;99.90;;;;;;4823762;29;20030;-86
2024/03/13 05:34:01;;;;;;;26.15;8.05;;;10.40;99.90;;;;;;4824125;29;20456;-86
2024/03/13 05:36:27;;;;;;;36.92;8.85;;;10.40;99.90;;;;;;4824839;29;20487;-87
2024/03/13 05:38:56;;;;;;;34.95;6.95;;;10.50;99.90;;;;;;4823922;29;20077;-87
2024/03/13 05:41:21;;;;;;;23.80;6.55;;;10.60;99.90;;;;;;4826030;29;20046;-86
2024/03/13 05:43:47;;;;;;;33.30;7.50;;;10.50;99.90;;;;;;4842604;29;20094;-87
2024/03/13 05:46:12;;;;;;;28.02;8.25;;;10.50;99.90;;;;;;4836814;29;20026;-87
2024/03/13 05:48:38;;;;;;;23.23;7.13;;;10.60;99.90;;;;;;4842593;29;20030;-87
2024/03/13 05:51:06;;;;;;;35.50;6.68;;;10.50;99.90;;;;;;4842632;29;20563;-87
2024/03/13 05:53:32;;;;;;;37.70;8.35;;;10.50;99.90;;;;;;4842174;29;20026;-87
2024/03/13 05:55:59;;;;;;;30.55;9.02;;;10.50;99.90;;;;;;4828169;29;20026;-86
2024/03/13 05:58:25;;;;;;;43.00;9.73;;;10.60;99.90;;;;;;4823786;29;20042;-85
2024/03/13 06:00:52;;;;;;;31.77;8.90;;;10.60;99.90;;;;;;4822984;29;20030;-87
2024/03/13 06:03:18;;;;;;;30.13;8.93;;;10.60;99.90;;;;;;4823900;29;20127;-86
2024/03/13 06:05:45;;;;;;;32.97;9.88;;;11.10;99.90;;;;;;4826811;29;20140;-86
2024/03/13 06:08:12;;;;;;;32.15;9.65;;;10.40;99.90;;;;;;4842516;29;20137;-90
2024/03/13 06:10:38;;;;;;;33.50;8.88;;;10.60;99.90;;;;;;4837664;29;20026;-90
2024/03/13 06:13:03;;;;;;;38.53;9.10;;;10.60;99.90;;;;;;4843566;29;20352;-89
2024/03/13 06:15:29;;;;;;;29.23;7.60;;;10.60;99.90;;;;;;4843221;29;20094;-90
2024/03/13 06:17:55;;;;;;;36.25;9.93;;;10.70;99.90;;;;;;4843206;29;20026;-89
2024/03/13 06:20:21;;;;;;;21.90;6.55;;;10.70;99.90;;;;;;4842770;29;20436;-89
2024/03/13 06:22:47;;;;;;;32.55;8.40;;;10.70;99.90;;;;;;4843135;29;20058;-90
2024/03/13 06:25:13;;;;;;;23.55;7.65;;;10.70;99.90;;;;;;4837443;29;20031;-90
2024/03/13 06:27:40;;;;;;;26.10;7.50;;;10.70;99.90;;;;;;4839591;29;20063;-89
2024/03/13 06:30:08;;;;;;;31.00;8.20;;;10.70;99.90;;;;;;4826603;29;20069;-88
2024/03/13 06:32:34;;;;;;;32.15;9.18;;;10.70;99.90;;;;;;4842841;29;20029;-88
2024/03/13 06:35:02;;;;;;;40.28;7.43;;;10.60;99.90;;;;;;4843088;29;20429;-89
2024/03/13 06:37:28;;;;;;;28.75;7.88;;;10.60;99.90;;;;;;4834568;29;20034;-88
2024/03/13 06:39:55;;;;;;;33.00;8.13;;;10.60;99.90;;;;;;4831166;29;20113;-89
2024/03/13 06:42:20;;;;;;;28.92;8.00;;;10.70;99.90;;;;;;4819410;29;20047;-90
2024/03/13 06:44:47;;;;;;;29.42;7.85;;;10.70;99.90;;;;;;4822504;29;20030;-89
2024/03/13 06:47:12;;;;;;;29.98;8.05;;;10.70;99.90;;;;;;4828287;29;20038;-89
2024/03/13 06:49:39;;;;;;;32.47;8.10;;;10.70;99.90;;;;;;4835055;29;20494;-89
2024/03/13 06:52:06;;;;;;;27.48;7.80;;;10.80;99.90;;;;;;4839149;29;20230;-90
2024/03/13 06:54:32;;;;;;;35.97;9.00;;;10.70;99.90;;;;;;4842868;29;20483;-90
2024/03/13 06:56:57;;;;;;;30.23;8.27;;;10.70;99.90;;;;;;4831316;29;20037;-89
2024/03/13 06:59:23;;;;;;;28.30;7.85;;;10.70;99.90;;;;;;4829265;29;20440;-89
2024/03/13 07:01:51;;;;;;;34.00;8.32;;;10.70;99.90;;;;;;4831600;29;20491;-90
2024/03/13 07:04:18;;;;;;;41.30;9.65;;;10.70;99.90;;;;;;4827131;29;20031;-90
2024/03/13 07:06:44;;;;;;;26.48;8.15;;;10.70;99.90;;;;;;4842129;29;20034;-90
2024/03/13 07:09:10;;;;;;;26.35;8.18;;;10.70;99.90;;;;;;4840607;29;20083;-90
2024/03/13 07:11:37;;;;;;;23.25;9.57;;;10.70;99.90;;;;;;4841851;29;20449;-90
2024/03/13 07:14:02;;;;;;;28.73;9.27;;;10.70;99.90;;;;;;4842032;29;20034;-90
2024/03/13 07:16:28;;;;;;;24.65;8.55;;;10.70;99.90;;;;;;4837187;29;20022;-90
2024/03/13 07:18:58;;;;;;;29.70;8.38;;;10.70;99.90;;;;;;4841138;29;20026;-91
2024/03/13 07:21:24;;;;;;;30.80;10.15;;;10.70;99.90;;;;;;4842108;29;20025;-91
2024/03/13 07:23:50;;;;;;;29.30;10.38;;;10.70;99.90;;;;;;4835842;29;20408;-89
2024/03/13 07:26:15;;;;;;;36.55;10.65;;;11.10;99.90;;;;;;4828654;29;20033;-91
2024/03/13 07:28:41;;;;;;;31.05;10.68;;;10.60;99.90;;;;;;4834800;29;20057;-91
2024/03/13 07:31:07;;;;;;;36.88;10.10;;;10.60;99.90;;;;;;4846510;29;20051;-90
2024/03/13 07:33:33;;;;;;;33.55;13.13;;;10.60;99.90;;;;;;4836211;29;20026;-92
2024/03/13 07:35:59;;;;;;;29.60;12.25;;;10.70;99.90;;;;;;4844176;29;20022;-91
2024/03/13 07:38:24;;;;;;;26.58;12.27;;;10.70;99.90;;;;;;4835161;29;20034;-91
2024/03/13 07:40:50;;;;;;;36.85;13.23;;;10.70;99.90;;;;;;4826514;29;20038;-91
2024/03/13 07:43:16;;;;;;;28.02;13.20;;;11.50;99.90;;;;;;4832253;29;20042;-92
2024/03/13 07:45:41;;;;;;;28.35;13.45;;;10.80;99.90;;;;;;4835584;29;20034;-90
2024/03/13 07:48:10;;;;;;;37.17;14.60;;;10.80;99.90;;;;;;4832427;29;20083;-91
2024/03/13 07:50:39;;;;;;;33.80;15.32;;;10.80;99.90;;;;;;4838009;29;20058;-91
2024/03/13 07:53:08;;;;;;;36.55;15.85;;;10.70;99.90;;;;;;4845139;29;20029;-90
2024/03/13 07:55:34;;;;;;;34.38;14.70;;;10.80;99.90;;;;;;4843507;29;20034;-89
2024/03/13 07:58:00;;;;;;;32.90;15.27;;;10.80;99.90;;;;;;4842319;29;20058;-90
2024/03/13 08:00:29;;;;;;;34.53;14.63;;;11.00;99.90;;;;;;4835025;29;20061;-90
2024/03/13 08:02:55;;;;;;;35.30;13.70;;;10.80;99.90;;;;;;4828531;29;20073;-91
2024/03/13 08:05:22;;;;;;;32.20;13.77;;;10.80;99.90;;;;;;4834251;29;20105;-89
2024/03/13 08:07:48;;;;;;;31.27;14.32;;;10.70;99.90;;;;;;4841392;29;20129;-90
2024/03/13 08:10:18;;;;;;;42.40;14.18;;;10.80;99.90;;;;;;4839514;29;20109;-90
2024/03/13 08:12:44;;;;;;;;;;;10.80;99.90;;;;;;4845856;29;20044;-90
2024/03/13 08:15:11;;;;;;;40.38;13.10;;;10.70;99.90;;;;;;4845649;29;19909;-90
2024/03/13 08:17:37;;;;;;;38.63;13.25;;;10.70;99.90;;;;;;4845253;29;20105;-89
2024/03/13 08:20:04;;;;;;;40.17;14.75;;;10.80;99.90;;;;;;4845588;29;20030;-89
2024/03/13 08:22:29;;;;;;;36.78;12.10;;;10.70;99.90;;;;;;4844045;29;20049;-90
2024/03/13 08:24:55;;;;;;;32.63;12.10;;;10.80;99.90;;;;;;4838483;29;20034;-89
2024/03/13 08:27:21;;;;;;;35.88;11.85;;;10.80;99.90;;;;;;4829633;29;20034;-90
2024/03/13 08:29:47;;;;;;;32.15;8.52;;;10.90;99.90;;;;;;4837163;29;20069;-88
2024/03/13 08:32:12;;;;;;;27.65;9.45;;;10.80;99.90;;;;;;4828785;29;20470;-89
2024/03/13 08:34:39;;;;;;;28.77;9.38;;;10.90;99.90;;;;;;4836396;29;20032;-86
2024/03/13 08:37:05;;;;;;;17.70;8.60;;;10.90;99.90;;;;;;4835273;29;20422;-91
2024/03/13 08:39:30;;;;;;;25.63;8.00;;;10.90;99.90;;;;;;4828193;29;20033;-91
2024/03/13 08:41:58;;;;;;;26.45;7.20;;;10.90;99.90;;;;;;4844738;29;20061;-89
2024/03/13 08:44:23;;;;;;;31.15;7.50;;;11.20;99.90;;;;;;4844596;29;20049;-87
2024/03/13 08:46:49;;;;;;;18.65;6.70;;;11.00;99.90;;;;;;4844156;29;20029;-89
2024/03/13 08:49:16;;;;;;;25.75;8.13;;;11.00;99.90;;;;;;4830046;29;20654;-87
2024/03/13 08:51:41;;;;;;;18.55;6.47;;;11.00;99.90;;;;;;4825908;29;20030;-88
2024/03/13 08:54:11;;;;;;;24.10;6.45;;;11.00;99.90;;;;;;4838633;29;20493;-88
2024/03/13 08:56:40;;;;;;;18.10;6.13;;;11.00;99.90;;;;;;4842723;29;20102;-87
2024/03/13 08:59:07;;;;;;;17.92;6.35;;;11.00;99.90;;;;;;4848079;29;20170;-88
2024/03/13 09:01:41;;;;;;;26.33;7.35;;;10.90;99.90;;;;;;4848170;29;20066;-89
2024/03/13 09:04:08;;;;;;;14.82;6.45;;;10.90;99.90;;;;;;4847704;29;20037;-90
2024/03/13 09:06:36;;;;;;;19.70;7.20;;;10.90;99.90;;;;;;4845422;29;20049;-89
2024/03/13 09:09:03;;;;;;;18.70;6.38;;;10.90;99.90;;;;;;4846813;29;20045;-90
2024/03/13 09:11:29;;;;;;;19.95;6.43;;;11.30;99.90;;;;;;4830068;29;20061;-92
2024/03/13 09:14:01;;;;;;;18.30;6.15;;;10.90;99.90;;;;;;4824478;29;20101;-86
2024/03/13 09:16:28;;;;;;;18.00;6.07;;;10.90;99.90;;;;;;4826357;29;20038;-87
2024/03/13 09:18:54;;;;;;;19.77;6.22;;;10.90;99.90;;;;;;4845669;29;20041;-87
2024/03/13 09:21:19;;;;;;;13.00;5.40;;;11.00;99.90;;;;;;4844131;29;20038;-88
2024/03/13 09:23:45;;;;;;;16.88;6.03;;;11.00;99.90;;;;;;4842526;29;20042;-90
2024/03/13 09:26:12;;;;;;;20.20;5.72;;;11.00;99.90;;;;;;4844065;29;20026;-86
2024/03/13 09:28:37;;;;;;;17.05;6.80;;;11.00;99.90;;;;;;4842889;29;20114;-85
2024/03/13 09:31:03;;;;;;;20.92;7.45;;;11.00;99.90;;;;;;4843620;29;20026;-89
2024/03/13 09:33:31;;;;;;;22.90;6.95;;;11.00;99.90;;;;;;4827940;29;20715;-89
2024/03/13 09:35:57;;;;;;;15.73;6.40;;;11.10;99.90;;;;;;4825347;29;20128;-90
2024/03/13 09:38:22;;;;;;;21.83;8.10;;;11.10;99.90;;;;;;4839907;29;20546;-90
2024/03/13 09:40:48;;;;;;;19.38;7.05;;;11.10;99.90;;;;;;4842389;29;20024;-90
2024/03/13 09:43:15;;;;;;;19.38;7.03;;;12.00;99.90;;;;;;4843176;29;20045;-89
2024/03/13 09:45:43;;;;;;;20.98;7.10;;;12.10;99.90;;;;;;4842815;29;20074;-90
2024/03/13 09:48:12;;;;;;;20.80;7.60;;;11.20;99.90;;;;;;4843988;29;20093;-89
2024/03/13 09:50:40;;;;;;;16.00;6.05;;;11.20;99.90;;;;;;4843646;29;20022;-89
2024/03/13 09:53:08;;;;;;;20.63;6.75;;;11.30;99.90;;;;;;4843939;29;20060;-90
2024/03/13 09:55:34;;;;;;;23.02;6.18;;;11.30;99.90;;;;;;4843269;29;20074;-90
2024/03/13 09:58:02;;;;;;;24.92;5.60;;;11.30;99.90;;;;;;4842201;29;20506;-89
2024/03/13 10:00:28;;;;;;;23.45;5.68;;;11.30;99.90;;;;;;4828476;29;20049;-90
2024/03/13 10:02:56;;;;;;;21.85;5.72;;;11.30;99.90;;;;;;4825516;29;20479;-89
2024/03/13 10:05:23;;;;;;;23.15;4.82;;;11.30;99.90;;;;;;4825615;29;20068;-90
2024/03/13 10:07:50;;;;;;;19.58;5.15;;;11.30;99.90;;;;;;4825225;29;20492;-90
2024/03/13 10:10:28;;;;;;;20.92;5.45;;;11.30;99.90;;;;;;4827260;29;20066;-90
2024/03/13 10:13:01;;;;;;;27.67;5.95;;;11.30;99.90;;;;;;4831679;29;20046;-89
2024/03/13 10:15:29;;;;;;;14.02;4.63;;;11.40;99.90;;;;;;4830311;29;20027;-89
2024/03/13 10:18:12;;;;;;;18.65;3.97;;;11.30;99.90;;;;;;4824869;29;20073;-89
2024/03/13 10:20:54;;;;;;;13.98;4.03;;;11.40;99.90;;;;;;4838610;29;20037;-89
2024/03/13 10:23:22;;;;;;;16.40;4.30;;;11.30;99.90;;;;;;4843401;29;20046;-90
2024/03/13 10:25:56;;;;;;;14.48;4.32;;;11.40;99.90;;;;;;4841890;29;20030;-89
2024/03/13 10:28:23;;;;;;;16.63;3.60;;;11.40;99.90;;;;;;4842958;29;20494;-90
2024/03/13 10:30:52;;;;;;;19.77;3.55;;;11.40;99.90;;;;;;4843270;29;20071;-89
2024/03/13 10:33:18;;;;;;;12.80;3.67;;;11.40;99.90;;;;;;4843416;29;20030;-90
2024/03/13 10:35:45;;;;;;;14.80;3.78;;;11.50;99.90;;;;;;4843422;29;20038;-88
2024/03/13 10:38:12;;;;;;;12.40;3.72;;;11.40;99.90;;;;;;4843408;29;20378;-89
2024/03/13 10:40:41;;;;;;;13.02;3.70;;;11.40;99.90;;;;;;4838259;29;20498;-89
2024/03/13 10:43:10;;;;;;;12.00;2.95;;;11.40;99.90;;;;;;4821222;29;20042;-88
2024/03/13 10:45:36;;;;;;;13.30;3.35;;;11.40;99.90;;;;;;4824925;29;20361;-88
2024/03/13 10:48:03;;;;;;;12.63;4.25;;;11.40;99.90;;;;;;4836226;29;20057;-89
2024/03/13 10:50:30;;;;;;;15.30;3.78;;;11.40;99.90;;;;;;4843265;29;20035;-89
2024/03/13 10:52:55;;;;;;;10.70;3.45;;;11.50;99.90;;;;;;4842967;29;20034;-89
2024/03/13 10:55:25;;;;;;;10.63;2.60;;;11.50;99.90;;;;;;4836136;29;20035;-90
2024/03/13 10:57:53;;;;;;;14.27;2.58;;;11.60;99.90;;;;;;4827793;29;20053;-88
2024/03/13 11:00:22;;;;;;;12.27;3.05;;;11.60;99.90;;;;;;4828393;29;20045;-91
2024/03/13 11:02:51;;;;;;;9.55;3.00;;;11.40;99.90;;;;;;4827549;29;20064;-90
2024/03/13 11:05:17;;;;;;;8.27;2.22;;;11.40;99.90;;;;;;4835447;29;20027;-89
2024/03/13 11:07:45;;;;;;;11.82;2.58;;;11.40;99.90;;;;;;4837994;29;20030;-87
2024/03/13 11:10:21;;;;;;;9.32;2.75;;;11.30;99.90;;;;;;4828995;29;20037;-89
2024/03/13 11:12:50;;;;;;;9.98;2.50;;;11.40;99.90;;;;;;4828307;29;20034;-89
2024/03/13 11:15:30;;;;;;;8.85;2.10;;;11.40;99.90;;;;;;4828249;29;20030;-88
2024/03/13 11:18:04;;;;;;;5.72;2.22;;;11.40;99.90;;;;;;4828191;29;20038;-89
2024/03/13 11:20:43;;;;;;;10.32;2.40;;;11.40;99.90;;;;;;4851934;29;20101;-89
2024/03/13 11:23:21;;;;;;;10.75;2.40;;;11.40;99.90;;;;;;4856604;29;20045;-89
2024/03/13 11:25:48;;;;;;;7.75;2.28;;;11.40;99.90;;;;;;4834530;29;20123;-89
2024/03/13 11:28:26;;;;;;;7.07;2.28;;;11.40;99.90;;;;;;4830262;29;20062;-91
2024/03/13 11:30:53;;;;;;;9.70;2.42;;;11.50;99.90;;;;;;4828116;29;20070;-88
2024/03/13 11:33:19;;;;;;;6.57;2.50;;;11.50;99.90;;;;;;4828932;29;20022;-88
2024/03/13 11:35:46;;;;;;;12.68;3.65;;;11.50;99.90;;;;;;4826906;29;20502;-87
2024/03/13 11:38:13;;;;;;;5.45;2.25;;;12.20;99.90;;;;;;4826370;29;20054;-87
2024/03/13 11:40:41;;;;;;;10.32;2.35;;;11.50;99.90;;;;;;4829417;29;20038;-87
2024/03/13 11:43:09;;;;;;;13.80;2.50;;;11.50;99.90;;;;;;4826841;29;20038;-87
2024/03/13 11:45:43;;;;;;;12.85;2.42;;;11.60;99.90;;;;;;4825946;29;20499;-88
2024/03/13 11:48:17;;;;;;;5.45;2.08;;;11.50;99.90;;;;;;4825991;29;20038;-86
2024/03/13 11:51:10;;;;;;;5.88;2.10;;;11.50;99.90;;;;;;4844056;29;20158;-89
2024/03/13 11:53:41;;;;;;;10.48;3.05;;;11.60;99.90;;;;;;4843684;29;20594;-89
2024/03/13 11:56:20;;;;;;;8.45;2.75;;;11.50;99.90;;;;;;4838146;29;20018;-93
2024/03/13 11:58:46;;;;;;;9.10;2.67;;;11.50;99.90;;;;;;4831298;29;20034;-88
2024/03/13 12:01:12;;;;;;;6.50;2.03;;;11.60;99.90;;;;;;4856937;29;20026;-91
2024/03/13 12:03:42;;;;;;;10.80;2.22;;;11.60;99.90;;;;;;4838087;29;20094;-94
2024/03/13 12:06:23;;;;;;;10.60;2.27;;;11.60;99.90;;;;;;4843517;29;20041;-93
2024/03/13 12:08:48;;;;;;;;;;;11.70;99.90;;;;;;4842595;29;20030;-93
2024/03/13 12:11:18;;;;;;;9.00;2.92;;;11.70;99.90;;;;;;4835860;29;19961;-92
2024/03/13 12:13:45;;;;;;;10.63;2.35;;;11.70;99.90;;;;;;4831146;29;20058;-93
2024/03/13 12:16:14;;;;;;;15.85;3.10;;;11.70;99.90;;;;;;4839333;29;20486;-91
2024/03/13 12:18:53;;;;;;;6.88;2.40;;;11.70;99.90;;;;;;4846267;29;20030;-92
2024/03/13 12:21:20;;;;;;;6.13;1.60;;;11.60;99.90;;;;;;4846215;29;20038;-90
2024/03/13 12:23:47;;;;;;;6.15;1.95;;;12.20;99.90;;;;;;4845532;29;20033;-91
2024/03/13 12:26:12;;;;;;;4.60;2.17;;;11.60;99.90;;;;;;4845687;29;20113;-90
2024/03/13 12:28:38;;;;;;;6.32;1.60;;;11.60;99.90;;;;;;4840834;29;20136;-90
2024/03/13 12:31:06;;;;;;;4.15;2.10;;;11.60;99.90;;;;;;4845206;29;20078;-90
2024/03/13 12:33:36;;;;;;;2.95;1.60;;;11.60;99.90;;;;;;4846114;29;20026;-90
2024/03/13 12:36:06;;;;;;;11.40;2.58;;;11.70;99.90;;;;;;4842855;29;20428;-92
2024/03/13 12:38:38;;;;;;;8.30;1.90;;;11.70;99.90;;;;;;4845702;29;20034;-93
2024/03/13 12:41:08;;;;;;;4.00;2.00;;;11.70;99.90;;;;;;4841877;29;20234;-91
2024/03/13 12:43:34;;;;;;;4.47;2.05;;;11.70;99.90;;;;;;4844415;29;20069;-91
2024/03/13 12:46:03;;;;;;;7.32;2.30;;;11.70;99.90;;;;;;4836326;29;20033;-91
2024/03/13 12:48:32;;;;;;;10.88;2.33;;;11.60;99.90;;;;;;4841878;29;20034;-92
2024/03/13 12:51:02;;;;;;;4.35;2.45;;;11.90;99.90;;;;;;4832433;29;20035;-92
2024/03/13 12:53:31;;;;;;;9.63;3.53;;;11.70;99.90;;;;;;4859066;29;20021;-91